Terminal Aerodrome Forecast
Issued by NWS

Home | Current Version | Previous Version | Text Only | Print | Product List | Glossary On
Versions: 1 2 3 4 5 6 7 8 9 10 11 12 13 14 15
851
FTUS42 KMLB 241134 AAA
TAFFPR
TAF AMD
KFPR 241134Z 2412/2512 VRB04KT 5SM BR FEW035 SCT250
     FM241300 07010KT P6SM VCSH SCT035 SCT250
     FM241800 06011G16KT P6SM VCSH SCT040 BKN250=

USA.gov is the U.S. government's official web portal to all federal, state and local government web resources and services.